Time;durP1;ratioP1;P1;durP2;ratioP2;P2;SDS_P1;SDS_P2;PMS_P1;PMS_P2;Temp;Humidity;BMP_temperature;BMP_pressure;BME280_temperature;BME280_humidity;BME280_pressure;Samples;Min_cycle;Max_cycle;Signal;HPM_P1;HPM_P2
2022/10/16 00:04:46;;;;;;;6.53;1.25;;;;;;;17.43;79.99;100048.44;10301161;28;20532;-66
2022/10/16 00:09:48;;;;;;;4.10;1.00;;;;;;;17.49;79.70;100033.09;10290679;28;20054;-70
2022/10/16 00:14:49;;;;;;;2.58;1.00;;;;;;;17.49;79.57;100036.66;10293461;28;20082;-68
2022/10/16 00:19:50;;;;;;;3.22;1.10;;;;;;;17.51;79.58;100031.81;10308792;28;20160;-69
2022/10/16 00:24:52;;;;;;;4.00;1.50;;;;;;;17.40;79.84;100036.16;10306321;28;20581;-62
2022/10/16 00:29:53;;;;;;;2.63;1.30;;;;;;;17.43;79.63;100035.69;10300432;28;20173;-61
2022/10/16 00:34:55;;;;;;;3.47;1.60;;;;;;;17.49;79.75;100042.09;10303342;28;20801;-62
2022/10/16 00:39:56;;;;;;;6.97;3.25;;;;;;;17.52;79.46;100033.50;10308410;28;20141;-62
2022/10/16 00:44:57;;;;;;;5.43;3.10;;;;;;;17.57;79.57;100032.78;10303097;28;20141;-61
2022/10/16 00:50:07;;;;;;;6.25;3.83;;;;;;;17.63;79.40;100029.16;10289355;28;20408;-62
2022/10/16 00:55:09;;;;;;;7.68;4.97;;;;;;;17.69;79.44;100035.56;10287225;28;20051;-63
2022/10/16 01:00:15;;;;;;;9.48;6.38;;;;;;;17.69;79.37;100041.00;10307417;28;20078;-62
2022/10/16 01:05:16;;;;;;;15.45;7.97;;;;;;;17.71;79.61;100052.47;10304252;28;20101;-61
2022/10/16 01:10:27;;;;;;;11.68;7.97;;;;;;;17.68;79.88;100061.09;10303086;28;20142;-62
2022/10/16 01:15:44;;;;;;;17.65;9.52;;;;;;;17.75;79.73;100062.66;10298220;28;20062;-62
2022/10/16 01:20:50;;;;;;;;;;;;;;;17.74;80.06;100074.59;10307468;28;20043;-63
2022/10/16 01:26:03;;;;;;;9.00;6.90;;;;;;;17.69;79.94;100070.91;10287941;28;19965;-62
2022/10/16 01:31:06;;;;;;;10.40;7.93;;;;;;;17.78;79.92;100055.94;10302082;28;20065;-62
2022/10/16 01:36:16;;;;;;;14.27;7.57;;;;;;;17.88;79.67;100049.97;10295754;28;20137;-63
2022/10/16 01:41:24;;;;;;;10.88;7.78;;;;;;;17.91;79.09;100044.91;10294486;28;20082;-63
2022/10/16 01:46:27;;;;;;;12.88;8.15;;;;;;;17.93;79.50;100053.66;10304003;28;20042;-62
2022/10/16 01:51:29;;;;;;;12.55;8.07;;;;;;;17.94;79.37;100071.63;10293384;28;20141;-62
2022/10/16 01:56:32;;;;;;;13.25;7.95;;;;;;;17.90;79.66;100070.41;10300753;28;20245;-62
2022/10/16 02:01:37;;;;;;;11.43;7.75;;;;;;;17.94;79.53;100049.84;10298902;28;20133;-62
2022/10/16 02:06:38;;;;;;;13.98;8.32;;;;;;;17.94;79.81;100055.31;10281768;28;20057;-63
2022/10/16 02:11:39;;;;;;;11.30;7.70;;;;;;;17.96;79.71;100071.38;10305542;28;20085;-62
2022/10/16 02:16:45;;;;;;;12.38;6.95;;;;;;;17.96;79.78;100071.38;10292727;28;20521;-63
2022/10/16 02:22:00;;;;;;;8.82;6.60;;;;;;;17.92;80.08;100076.47;10270468;28;20082;-62
2022/10/16 02:27:31;;;;;;;12.80;6.75;;;;;;;17.95;80.14;100077.88;10282193;28;20074;-63
2022/10/16 02:32:35;;;;;;;9.75;6.00;;;;;;;17.93;80.23;100080.84;10302605;28;20070;-62
2022/10/16 02:37:38;;;;;;;12.05;6.15;;;;;;;17.92;80.13;100065.59;10287630;28;20135;-62
2022/10/16 02:42:40;;;;;;;8.70;4.82;;;;;;;17.89;80.31;100081.53;10277962;28;20142;-63
2022/10/16 02:47:42;;;;;;;5.60;4.45;;;;;;;17.83;80.62;100077.81;10274081;28;20706;-62
2022/10/16 02:52:43;;;;;;;7.10;4.28;;;;;;;17.88;80.55;100083.41;10275745;28;20057;-63
2022/10/16 02:57:44;;;;;;;3.95;3.22;;;;;;;17.84;80.37;100084.94;10297257;28;20054;-62
2022/10/16 03:02:46;;;;;;;7.80;2.92;;;;;;;17.80;80.57;100081.81;10289056;28;20153;-63
2022/10/16 03:07:48;;;;;;;5.07;2.60;;;;;;;17.62;80.95;100090.84;10283364;28;20067;-64
2022/10/16 03:12:49;;;;;;;3.90;2.08;;;;;;;17.57;81.21;100120.59;10302449;28;20137;-63
2022/10/16 03:17:51;;;;;;;3.28;1.52;;;;;;;17.52;81.32;100116.91;10299615;28;20081;-65
2022/10/16 03:22:52;;;;;;;2.83;1.67;;;;;;;17.46;81.38;100107.78;10300658;28;20113;-65
2022/10/16 03:27:54;;;;;;;3.55;1.77;;;;;;;17.50;81.26;100113.59;10300457;28;20050;-64
2022/10/16 03:32:55;;;;;;;2.72;1.42;;;;;;;17.53;80.68;100124.81;10299036;28;20141;-64
2022/10/16 03:37:56;;;;;;;3.88;1.10;;;;;;;17.48;80.87;100127.41;10284480;28;20215;-64
2022/10/16 03:42:58;;;;;;;8.55;1.60;;;;;;;17.47;80.82;100124.91;10311422;28;20296;-64
2022/10/16 03:47:59;;;;;;;1.98;1.25;;;;;;;17.46;80.54;100137.69;10291007;28;20057;-63
2022/10/16 03:53:01;;;;;;;6.68;1.10;;;;;;;17.48;80.56;100126.59;10306190;28;20137;-66
2022/10/16 03:58:02;;;;;;;5.30;1.60;;;;;;;17.45;80.42;100128.66;10291246;28;20475;-63
2022/10/16 04:03:04;;;;;;;3.47;1.10;;;;;;;17.39;80.46;100129.56;10305918;28;20064;-64
2022/10/16 04:08:05;;;;;;;3.13;1.00;;;;;;;17.41;80.34;100130.19;10294772;28;20134;-64
2022/10/16 04:13:07;;;;;;;5.18;0.80;;;;;;;17.41;80.31;100134.78;10301160;28;20046;-64
2022/10/16 04:18:08;;;;;;;4.88;1.05;;;;;;;17.44;80.03;100139.78;10301597;28;20074;-65
2022/10/16 04:23:10;;;;;;;3.35;1.48;;;;;;;17.49;80.17;100139.91;10302251;28;20125;-64
2022/10/16 04:28:11;;;;;;;1.90;0.90;;;;;;;17.55;79.87;100141.72;10287076;28;20130;-64
2022/10/16 04:33:13;;;;;;;2.65;0.98;;;;;;;17.58;79.87;100154.06;10304428;28;20725;-64
2022/10/16 04:38:14;;;;;;;2.42;0.98;;;;;;;17.50;79.93;100162.53;10285395;28;20146;-64
2022/10/16 04:43:15;;;;;;;5.07;1.05;;;;;;;17.55;79.85;100165.38;10297659;28;20133;-63
2022/10/16 04:48:17;;;;;;;2.33;0.98;;;;;;;17.63;79.76;100157.75;10299927;28;20087;-63
2022/10/16 04:53:19;;;;;;;4.68;1.58;;;;;;;17.64;79.59;100159.41;10304917;28;20054;-63
2022/10/16 04:58:20;;;;;;;3.25;1.50;;;;;;;17.69;79.47;100149.72;10308731;28;20239;-64
2022/10/16 05:03:22;;;;;;;2.92;1.40;;;;;;;17.72;79.46;100155.56;10300777;28;20137;-63
2022/10/16 05:08:23;;;;;;;1.13;0.82;;;;;;;17.73;79.45;100161.81;10303720;28;20083;-64
2022/10/16 05:13:25;;;;;;;3.08;1.20;;;;;;;17.73;79.15;100164.53;10303086;28;20142;-64
2022/10/16 05:18:26;;;;;;;1.67;1.30;;;;;;;17.71;79.28;100169.38;10304020;28;20136;-63
2022/10/16 05:23:27;;;;;;;3.92;1.17;;;;;;;17.73;79.42;100161.81;10302641;28;20568;-64
2022/10/16 05:28:30;;;;;;;2.58;1.08;;;;;;;17.76;79.11;100169.53;10304726;28;20137;-63
2022/10/16 05:33:31;;;;;;;4.35;1.13;;;;;;;17.77;79.21;100163.88;10303785;28;20141;-64
2022/10/16 05:38:34;;;;;;;6.55;3.15;;;;;;;17.77;79.03;100173.88;10305792;28;20049;-64
2022/10/16 05:43:35;;;;;;;4.78;2.58;;;;;;;17.77;79.39;100163.00;10302888;28;20149;-63
2022/10/16 05:48:37;;;;;;;3.63;2.83;;;;;;;17.76;79.06;100167.63;10300364;28;20145;-69
2022/10/16 05:53:39;;;;;;;3.85;2.38;;;;;;;17.76;79.15;100166.81;10301450;28;20461;-68
2022/10/16 05:58:41;;;;;;;6.55;2.03;;;;;;;17.77;79.20;100179.31;10308147;28;20093;-69
2022/10/16 06:03:43;;;;;;;4.55;1.65;;;;;;;17.79;79.13;100179.94;10306306;28;20133;-69
2022/10/16 06:08:46;;;;;;;2.95;1.73;;;;;;;17.80;78.95;100187.88;10288658;28;20141;-69
2022/10/16 06:13:53;;;;;;;4.57;1.40;;;;;;;17.82;78.91;100204.78;10306256;28;20094;-69
2022/10/16 06:18:59;;;;;;;5.18;1.20;;;;;;;17.87;79.06;100204.16;10305775;28;20145;-69
2022/10/16 06:24:01;;;;;;;1.13;0.97;;;;;;;17.87;78.90;100212.31;10299706;28;20062;-69
2022/10/16 06:29:02;;;;;;;5.40;1.73;;;;;;;17.88;78.92;100211.25;10303834;28;20085;-69
2022/10/16 06:34:06;;;;;;;3.53;1.10;;;;;;;17.88;79.00;100224.00;10304454;28;20046;-69
2022/10/16 06:39:07;;;;;;;2.20;1.00;;;;;;;17.88;79.24;100227.56;10303347;28;20572;-69
2022/10/16 06:44:08;;;;;;;2.65;1.08;;;;;;;17.87;79.08;100231.34;10303497;28;20090;-69
2022/10/16 06:49:10;;;;;;;3.42;1.27;;;;;;;17.91;79.01;100227.13;10303455;28;20141;-69
2022/10/16 06:54:11;;;;;;;3.50;2.28;;;;;;;17.96;78.91;100220.97;10299013;28;20062;-69
2022/10/16 06:59:13;;;;;;;7.55;4.85;;;;;;;17.93;79.31;100230.44;10283653;28;20138;-69
2022/10/16 07:04:14;;;;;;;6.13;3.17;;;;;;;17.90;79.12;100224.63;10305378;28;20075;-69
2022/10/16 07:09:15;;;;;;;11.10;6.57;;;;;;;17.98;79.07;100230.56;10296649;28;20133;-69
2022/10/16 07:14:19;;;;;;;10.32;5.18;;;;;;;18.00;79.15;100252.09;10296945;28;20107;-69
2022/10/16 07:19:21;;;;;;;3.53;1.63;;;;;;;18.01;78.96;100259.22;10313807;28;20078;-70
2022/10/16 07:24:23;;;;;;;2.60;1.55;;;;;;;18.03;78.94;100265.25;10309876;28;20062;-69
2022/10/16 07:29:24;;;;;;;5.45;1.38;;;;;;;18.06;78.95;100272.94;10309169;28;20724;-69
2022/10/16 07:34:26;;;;;;;2.30;1.40;;;;;;;18.06;78.98;100286.56;10311006;28;20572;-69
2022/10/16 07:39:28;;;;;;;2.42;1.00;;;;;;;17.92;79.48;100301.38;10307594;28;20482;-69
2022/10/16 07:44:29;;;;;;;2.00;1.20;;;;;;;17.98;79.25;100303.19;10310993;28;20070;-68
2022/10/16 07:49:31;;;;;;;4.88;1.20;;;;;;;17.96;79.36;100324.34;10314751;28;20133;-69
2022/10/16 07:54:32;;;;;;;4.65;1.50;;;;;;;17.96;79.34;100330.59;10308969;28;20110;-69
2022/10/16 07:59:34;;;;;;;4.40;1.42;;;;;;;17.99;79.37;100330.16;10297587;28;20613;-69
2022/10/16 08:04:36;;;;;;;4.55;1.70;;;;;;;18.03;79.38;100336.00;10313498;28;20062;-69
2022/10/16 08:09:37;;;;;;;2.50;2.10;;;;;;;17.95;79.72;100348.00;10313551;28;20122;-69
2022/10/16 08:14:38;;;;;;;2.55;1.55;;;;;;;17.99;79.62;100354.63;10311360;28;20050;-68
2022/10/16 08:19:47;;;;;;;4.47;1.95;;;;;;;18.09;79.01;100351.41;10313932;28;20043;-68
2022/10/16 08:24:48;;;;;;;4.13;2.58;;;;;;;18.16;78.96;100352.16;10308618;28;20070;-69
2022/10/16 08:29:50;;;;;;;3.33;2.03;;;;;;;18.17;78.89;100374.75;10310277;28;20082;-69
2022/10/16 08:34:51;;;;;;;5.10;2.35;;;;;;;18.18;78.97;100387.28;10289043;28;20077;-69
2022/10/16 08:39:52;;;;;;;6.32;3.17;;;;;;;17.89;80.06;100388.81;10304101;28;20498;-70
2022/10/16 08:45:14;;;;;;;4.28;3.38;;;;;;;17.86;79.74;100389.28;10288686;28;20046;-70
2022/10/16 08:50:27;;;;;;;6.82;3.50;;;;;;;17.77;80.13;100399.56;10307278;28;20146;-72
2022/10/16 08:55:36;;;;;;;6.80;4.40;;;;;;;17.90;80.00;100402.22;10307275;28;20520;-73
2022/10/16 09:00:38;;;;;;;8.57;5.93;;;;;;;17.96;79.88;100400.50;10311786;28;20548;-71
2022/10/16 09:05:57;;;;;;;9.35;5.97;;;;;;;18.04;79.89;100398.31;10306748;28;20085;-72
2022/10/16 09:11:13;;;;;;;8.50;4.65;;;;;;;18.14;80.05;100408.66;10306531;28;20473;-71
2022/10/16 09:16:36;;;;;;;7.47;3.40;;;;;;;18.14;80.10;100416.00;10316372;28;20090;-73
2022/10/16 09:21:42;;;;;;;7.10;4.15;;;;;;;18.04;80.72;100430.94;10301093;28;20051;-71
2022/10/16 09:26:43;;;;;;;3.97;3.10;;;;;;;17.93;80.82;100450.75;10309101;28;20630;-71
2022/10/16 09:31:46;;;;;;;6.13;3.95;;;;;;;18.00;80.91;100450.66;10302112;28;20153;-70
2022/10/16 09:36:47;;;;;;;5.95;3.92;;;;;;;17.97;80.78;100449.22;10311857;28;20039;-71
2022/10/16 09:41:49;;;;;;;4.50;3.28;;;;;;;17.98;80.84;100464.47;10289081;28;20077;-70
2022/10/16 09:47:02;;;;;;;7.20;4.22;;;;;;;18.10;80.43;100461.03;10307601;28;20045;-69
2022/10/16 09:52:13;;;;;;;10.00;5.35;;;;;;;18.22;80.44;100461.97;10296621;28;20100;-69
2022/10/16 09:57:15;;;;;;;7.07;3.40;;;;;;;18.39;80.47;100460.34;10302960;28;20065;-70
2022/10/16 10:02:20;;;;;;;8.68;3.28;;;;;;;18.55;80.14;100464.38;10301552;28;20458;-70
2022/10/16 10:07:34;;;;;;;3.95;3.05;;;;;;;18.62;80.29;100473.31;10305756;28;20122;-69
2022/10/16 10:12:44;;;;;;;2.75;2.55;;;;;;;18.66;80.14;100476.41;10306495;28;20641;-69
2022/10/16 10:17:51;;;;;;;3.70;2.53;;;;;;;18.73;80.10;100473.59;10285341;28;20125;-70
2022/10/16 10:22:55;;;;;;;;;;;;;;;18.85;80.53;100471.81;10291278;28;20085;-73
2022/10/16 10:28:34;;;;;;;3.45;1.73;;;;;;;19.00;80.26;100463.25;10290750;28;19953;-70
2022/10/16 10:33:51;;;;;;;4.00;1.10;;;;;;;19.18;80.23;100463.22;10296965;28;20081;-70
2022/10/16 10:38:58;;;;;;;1.90;0.90;;;;;;;19.51;79.94;100461.94;10302569;28;20153;-70
2022/10/16 10:44:14;;;;;;;3.15;1.48;;;;;;;19.62;79.66;100465.75;10287602;28;20133;-70
2022/10/16 10:49:36;;;;;;;2.97;0.75;;;;;;;19.80;79.32;100471.16;10306581;28;20650;-68
2022/10/16 10:54:47;;;;;;;2.20;0.70;;;;;;;19.83;78.81;100464.41;10309619;28;20177;-70
2022/10/16 11:00:20;;;;;;;1.55;0.85;;;;;;;19.81;78.70;100459.19;10306118;28;20164;-69
2022/10/16 11:05:43;;;;;;;2.40;0.80;;;;;;;19.99;78.73;100454.72;10307875;28;20058;-69
2022/10/16 11:10:51;;;;;;;3.40;0.63;;;;;;;20.24;78.23;100449.03;10290125;28;20074;-69
2022/10/16 11:15:56;;;;;;;2.05;0.30;;;;;;;20.37;77.38;100447.94;10310484;28;20063;-68
2022/10/16 11:21:05;;;;;;;0.47;0.30;;;;;;;20.34;76.96;100449.25;10311563;28;20440;-68
2022/10/16 11:26:16;;;;;;;1.95;0.70;;;;;;;20.62;76.15;100455.06;10304670;28;20105;-69
2022/10/16 11:31:32;;;;;;;1.40;1.25;;;;;;;20.73;76.46;100438.66;10311848;28;20078;-69
2022/10/16 11:36:48;;;;;;;1.05;0.70;;;;;;;20.83;76.32;100453.59;10312244;28;20129;-69
2022/10/16 11:42:01;;;;;;;1.33;1.07;;;;;;;20.89;75.85;100455.38;10308366;28;20054;-68
2022/10/16 11:47:36;;;;;;;2.38;1.77;;;;;;;20.97;76.14;100449.50;10307243;28;20093;-69
2022/10/16 11:53:01;;;;;;;6.10;1.33;;;;;;;21.02;75.78;100440.59;10284797;28;20054;-68
2022/10/16 11:58:08;;;;;;;4.47;2.03;;;;;;;21.24;74.86;100452.50;10312557;28;20054;-69
2022/10/16 12:03:34;;;;;;;3.53;3.23;;;;;;;21.31;75.22;100449.66;10313146;28;20074;-68
2022/10/16 12:08:36;;;;;;;4.32;3.92;;;;;;;21.34;74.83;100446.41;10317230;28;20510;-68
2022/10/16 12:13:41;;;;;;;4.97;2.30;;;;;;;21.50;74.04;100456.59;10311686;28;20150;-67
2022/10/16 12:18:44;;;;;;;4.18;3.67;;;;;;;21.68;74.43;100457.44;10310309;28;20516;-68
2022/10/16 12:23:52;;;;;;;3.53;2.97;;;;;;;21.55;73.36;100462.16;10300089;28;20456;-69
2022/10/16 12:28:55;;;;;;;3.00;2.05;;;;;;;21.50;73.57;100461.22;10317032;28;20580;-68
2022/10/16 12:34:00;;;;;;;3.13;2.17;;;;;;;21.53;73.50;100464.31;10318775;28;20051;-67
2022/10/16 12:39:02;;;;;;;2.38;2.17;;;;;;;21.62;72.98;100458.44;10317189;28;20142;-69
2022/10/16 12:44:04;;;;;;;2.00;1.40;;;;;;;21.53;73.05;100461.56;10323108;28;20050;-68
2022/10/16 12:49:11;;;;;;;1.50;1.00;;;;;;;21.66;72.36;100471.34;10322769;28;20045;-69
2022/10/16 12:54:41;;;;;;;1.85;0.85;;;;;;;21.63;72.49;100460.09;10320101;28;20057;-69
2022/10/16 13:00:01;;;;;;;2.15;1.30;;;;;;;21.61;72.17;100478.66;10300242;28;20077;-69
2022/10/16 13:05:18;;;;;;;1.55;0.98;;;;;;;21.90;71.65;100482.16;10305961;28;20071;-73
2022/10/16 13:10:26;;;;;;;;;;;;;;;21.96;73.44;100464.78;10318490;28;20476;-70
2022/10/16 13:15:47;;;;;;;1.00;0.70;;;;;;;21.82;71.69;100472.47;10314872;28;19922;-70
2022/10/16 13:21:04;;;;;;;1.05;0.50;;;;;;;21.84;71.32;100481.28;10312727;28;20050;-71
2022/10/16 13:26:31;;;;;;;0.88;0.50;;;;;;;21.91;71.01;100481.94;10301710;28;20146;-71
2022/10/16 13:31:34;;;;;;;0.63;0.43;;;;;;;21.97;71.39;100482.84;10298893;28;20074;-72
2022/10/16 13:36:47;;;;;;;0.52;0.50;;;;;;;22.01;70.79;100472.22;10300593;28;20136;-72
2022/10/16 13:42:03;;;;;;;2.17;0.80;;;;;;;22.11;69.99;100473.22;10310520;28;20077;-71
2022/10/16 13:47:29;;;;;;;2.63;0.50;;;;;;;22.25;69.94;100472.91;10300867;28;20051;-70
2022/10/16 13:52:32;;;;;;;0.82;0.47;;;;;;;22.21;70.52;100478.03;10288397;28;20058;-70
2022/10/16 13:57:33;;;;;;;1.65;0.40;;;;;;;22.26;69.91;100472.66;10292840;28;20057;-70
2022/10/16 14:02:39;;;;;;;1.25;0.50;;;;;;;22.23;69.86;100467.66;10286051;28;20159;-71
2022/10/16 14:07:41;;;;;;;1.35;0.60;;;;;;;22.18;69.83;100462.94;10303616;28;20086;-71
2022/10/16 14:12:43;;;;;;;2.25;0.60;;;;;;;22.26;69.95;100469.09;10282308;28;20073;-71
2022/10/16 14:17:50;;;;;;;1.00;0.60;;;;;;;22.36;69.45;100463.78;10259961;28;20509;-71
2022/10/16 14:22:59;;;;;;;;;;;;;;;22.37;72.04;100465.41;10265269;28;20074;-72
2022/10/16 14:28:14;;;;;;;1.60;0.70;;;;;;;22.42;71.10;100472.91;10277726;28;20397;-72
2022/10/16 14:33:21;;;;;;;2.40;0.80;;;;;;;22.44;70.47;100476.22;10296636;28;20082;-71
2022/10/16 14:38:23;;;;;;;3.80;1.75;;;;;;;22.48;70.44;100485.59;10288227;28;20619;-71
2022/10/16 14:43:45;;;;;;;3.47;1.10;;;;;;;22.52;70.11;100484.00;10283025;28;20082;-68
2022/10/16 14:48:59;;;;;;;1.30;0.60;;;;;;;22.62;69.49;100481.41;10305043;28;20049;-68
2022/10/16 14:54:01;;;;;;;1.40;0.80;;;;;;;22.65;70.13;100485.53;10305951;28;20138;-68
2022/10/16 14:59:03;;;;;;;1.40;0.80;;;;;;;22.67;70.25;100486.97;10301929;28;20062;-68
2022/10/16 15:04:04;;;;;;;3.22;0.93;;;;;;;22.67;69.64;100476.00;10300761;28;20054;-69
2022/10/16 15:09:06;;;;;;;1.13;0.93;;;;;;;22.69;69.79;100483.94;10302259;28;20428;-66
2022/10/16 15:14:13;;;;;;;4.35;0.95;;;;;;;22.73;69.64;100480.47;10287899;28;20050;-65
2022/10/16 15:19:19;;;;;;;0.68;0.50;;;;;;;22.83;69.78;100484.41;10303699;28;20063;-66
2022/10/16 15:24:21;;;;;;;1.63;0.80;;;;;;;22.82;69.30;100494.53;10280457;28;20117;-65
2022/10/16 15:29:22;;;;;;;1.85;0.60;;;;;;;22.72;68.96;100489.75;10311583;28;20076;-66
2022/10/16 15:34:24;;;;;;;1.10;0.80;;;;;;;22.66;69.00;100490.78;10295941;28;20570;-69
2022/10/16 15:39:25;;;;;;;3.83;0.95;;;;;;;22.61;69.54;100498.94;10292000;28;20070;-68
2022/10/16 15:44:29;;;;;;;1.00;0.77;;;;;;;22.52;69.19;100506.75;10302789;28;20464;-68
2022/10/16 15:49:31;;;;;;;2.25;0.80;;;;;;;22.44;69.08;100511.81;10311986;28;20082;-68
2022/10/16 15:54:32;;;;;;;1.00;0.60;;;;;;;22.37;69.08;100504.63;10312112;28;20109;-68
2022/10/16 15:59:34;;;;;;;2.97;1.13;;;;;;;22.32;69.22;100500.97;10300791;28;20082;-69
2022/10/16 16:04:35;;;;;;;1.95;0.85;;;;;;;22.24;69.89;100517.78;10304609;28;20105;-69
2022/10/16 16:09:44;;;;;;;2.15;1.65;;;;;;;22.13;70.17;100516.78;10303677;28;20046;-69
2022/10/16 16:14:48;;;;;;;4.07;1.83;;;;;;;22.05;70.41;100511.72;10309982;28;20113;-71
2022/10/16 16:19:50;;;;;;;3.92;1.95;;;;;;;21.95;70.73;100513.19;10304704;28;20077;-70
2022/10/16 16:24:52;;;;;;;4.15;1.73;;;;;;;21.87;71.10;100515.53;10309102;28;20463;-68
2022/10/16 16:29:55;;;;;;;10.85;4.18;;;;;;;21.70;71.77;100521.81;10310198;28;20049;-70
2022/10/16 16:34:56;;;;;;;11.82;5.10;;;;;;;21.66;71.57;100519.78;10315769;28;20082;-74
2022/10/16 16:40:00;;;;;;;5.47;3.40;;;;;;;21.61;71.47;100516.97;10310162;28;20173;-69
2022/10/16 16:45:02;;;;;;;3.92;2.55;;;;;;;21.53;71.65;100521.75;10312061;28;20047;-69
2022/10/16 16:50:04;;;;;;;2.42;1.90;;;;;;;21.45;71.86;100526.78;10290900;28;20149;-69
2022/10/16 16:55:06;;;;;;;3.10;2.10;;;;;;;21.36;71.85;100524.38;10293151;28;20061;-68
2022/10/16 17:00:08;;;;;;;4.18;2.10;;;;;;;21.27;72.44;100528.59;10311045;28;20046;-68
2022/10/16 17:05:10;;;;;;;4.25;2.58;;;;;;;21.17;72.61;100536.59;10311453;28;20567;-68
2022/10/16 17:10:11;;;;;;;4.75;3.75;;;;;;;21.05;72.72;100542.09;10293227;28;20457;-68
2022/10/16 17:15:12;;;;;;;3.72;3.28;;;;;;;20.97;72.73;100556.97;10290963;28;20092;-68
2022/10/16 17:20:14;;;;;;;5.07;3.50;;;;;;;20.89;73.08;100559.22;10307011;28;20073;-68
2022/10/16 17:25:16;;;;;;;4.85;3.30;;;;;;;20.79;73.09;100557.94;10310666;28;20097;-68
2022/10/16 17:30:18;;;;;;;7.78;3.83;;;;;;;20.68;74.09;100558.75;10292906;28;20042;-68
2022/10/16 17:35:19;;;;;;;13.95;8.45;;;;;;;20.60;73.82;100567.31;10289151;28;20137;-64
2022/10/16 17:40:21;;;;;;;6.50;4.15;;;;;;;20.51;74.28;100574.97;10301570;28;20141;-63
2022/10/16 17:45:22;;;;;;;4.10;3.65;;;;;;;20.43;74.58;100571.78;10302899;28;20047;-63
2022/10/16 17:50:24;;;;;;;8.40;4.32;;;;;;;20.36;74.27;100586.38;10295487;28;20046;-64
2022/10/16 17:55:25;;;;;;;8.90;5.07;;;;;;;20.28;74.80;100574.94;10299349;28;20074;-65
2022/10/16 18:00:27;;;;;;;6.50;5.05;;;;;;;20.16;74.77;100580.38;10308773;28;20076;-62
2022/10/16 18:05:29;;;;;;;5.18;4.32;;;;;;;20.05;74.59;100576.56;10289827;28;20150;-63
2022/10/16 18:10:30;;;;;;;8.30;4.65;;;;;;;19.93;74.81;100584.72;10304091;28;20145;-63
2022/10/16 18:15:32;;;;;;;11.93;5.55;;;;;;;19.80;75.04;100590.38;10305557;28;20145;-62
2022/10/16 18:20:33;;;;;;;8.98;5.55;;;;;;;19.69;75.12;100591.97;10299787;28;20137;-62
2022/10/16 18:25:34;;;;;;;15.35;7.72;;;;;;;19.57;75.35;100596.53;10291316;28;20143;-62
2022/10/16 18:30:36;;;;;;;12.75;7.25;;;;;;;19.46;75.55;100603.56;10303477;28;20081;-63
2022/10/16 18:35:37;;;;;;;16.73;9.13;;;;;;;19.37;75.29;100599.47;10305268;28;20142;-62
2022/10/16 18:40:39;;;;;;;24.92;10.90;;;;;;;19.30;75.49;100601.47;10291858;28;20110;-63
2022/10/16 18:45:40;;;;;;;39.50;16.35;;;;;;;19.20;75.61;100612.91;10300851;28;20074;-64
2022/10/16 18:50:42;;;;;;;40.10;15.73;;;;;;;19.09;75.76;100617.19;10302863;28;20078;-67
2022/10/16 18:55:50;;;;;;;20.30;10.32;;;;;;;19.00;75.62;100610.38;10302497;28;20418;-67
2022/10/16 19:00:52;;;;;;;38.22;16.38;;;;;;;18.93;75.95;100602.28;10307106;28;20046;-66
2022/10/16 19:05:53;;;;;;;28.65;13.25;;;;;;;18.86;75.99;100604.25;10313171;28;20051;-66
2022/10/16 19:10:55;;;;;;;25.45;12.50;;;;;;;18.77;76.03;100611.81;10291227;28;20137;-67
2022/10/16 19:15:57;;;;;;;26.35;13.38;;;;;;;18.67;76.28;100619.66;10314275;28;20113;-69
2022/10/16 19:21:05;;;;;;;19.50;12.40;;;;;;;18.56;76.45;100613.06;10313138;28;20057;-66
2022/10/16 19:26:14;;;;;;;24.23;13.35;;;;;;;18.53;76.43;100608.06;10309059;28;20101;-66
2022/10/16 19:31:19;;;;;;;20.55;11.07;;;;;;;18.48;76.39;100615.22;10310802;28;20054;-66
2022/10/16 19:36:24;;;;;;;25.23;11.55;;;;;;;18.41;76.41;100613.38;10309132;28;20520;-66
2022/10/16 19:41:27;;;;;;;17.17;9.85;;;;;;;18.36;76.45;100615.91;10314856;28;20070;-67
2022/10/16 19:46:30;;;;;;;16.90;9.75;;;;;;;18.28;76.49;100618.91;10297534;28;20141;-67
2022/10/16 19:51:32;;;;;;;15.18;7.80;;;;;;;18.19;76.64;100625.69;10317154;28;20141;-67
2022/10/16 19:56:34;;;;;;;11.02;7.28;;;;;;;17.99;77.23;100629.38;10312892;28;20140;-66
2022/10/16 20:01:36;;;;;;;12.57;7.25;;;;;;;17.97;77.38;100638.78;10305274;28;20097;-66
2022/10/16 20:06:38;;;;;;;15.27;7.10;;;;;;;17.96;77.22;100648.00;10307133;28;20620;-66
2022/10/16 20:11:41;;;;;;;12.23;7.32;;;;;;;17.93;77.25;100656.59;10307390;28;20038;-66
2022/10/16 20:16:42;;;;;;;14.70;8.55;;;;;;;17.82;77.36;100655.38;10304805;28;20150;-66
2022/10/16 20:21:44;;;;;;;14.38;8.90;;;;;;;17.86;77.50;100661.25;10309244;28;20070;-65
2022/10/16 20:26:45;;;;;;;13.27;7.13;;;;;;;17.84;77.33;100664.19;10311394;28;20141;-66
2022/10/16 20:31:46;;;;;;;14.25;7.05;;;;;;;17.81;77.36;100656.41;10289457;28;20215;-66
2022/10/16 20:36:49;;;;;;;11.95;6.75;;;;;;;17.80;76.94;100665.63;10305053;28;20130;-66
2022/10/16 20:41:51;;;;;;;15.05;9.52;;;;;;;17.75;76.97;100666.28;10306829;28;20054;-65
2022/10/16 20:46:54;;;;;;;12.15;7.35;;;;;;;17.67;77.30;100669.22;10311900;28;20574;-66
2022/10/16 20:51:55;;;;;;;13.02;7.30;;;;;;;17.62;77.12;100666.34;10305016;28;20460;-67
2022/10/16 20:56:57;;;;;;;20.25;11.52;;;;;;;17.59;77.14;100673.00;10307455;28;20556;-66
2022/10/16 21:01:58;;;;;;;16.30;10.35;;;;;;;17.52;76.97;100676.84;10316521;28;20082;-67
2022/10/16 21:07:00;;;;;;;15.27;9.05;;;;;;;17.40;77.31;100680.19;10307176;28;20050;-67
2022/10/16 21:12:01;;;;;;;17.00;9.45;;;;;;;17.38;77.20;100674.13;10304986;28;20166;-66
2022/10/16 21:17:03;;;;;;;16.63;10.57;;;;;;;17.30;77.68;100690.69;10287822;28;20122;-66
2022/10/16 21:22:04;;;;;;;15.60;9.50;;;;;;;17.25;77.21;100680.41;10305448;28;20133;-66
2022/10/16 21:27:06;;;;;;;16.63;9.95;;;;;;;17.21;77.46;100676.47;10287230;28;20137;-67
2022/10/16 21:32:08;;;;;;;18.88;10.23;;;;;;;17.16;77.32;100678.13;10309371;28;20569;-66
2022/10/16 21:37:09;;;;;;;12.05;8.63;;;;;;;17.04;77.64;100673.38;10304493;28;20073;-66
2022/10/16 21:42:10;;;;;;;17.25;8.52;;;;;;;16.95;78.02;100677.34;10298999;28;20126;-66
2022/10/16 21:47:12;;;;;;;9.85;7.22;;;;;;;16.94;78.07;100669.41;10302708;28;20133;-66
2022/10/16 21:52:13;;;;;;;11.32;7.25;;;;;;;16.98;77.78;100676.94;10302893;28;20070;-66
2022/10/16 21:57:14;;;;;;;12.30;7.82;;;;;;;16.98;77.67;100676.06;10301636;28;20630;-66
2022/10/16 22:02:16;;;;;;;13.30;7.35;;;;;;;16.94;77.37;100674.81;10303582;28;20085;-66
2022/10/16 22:07:17;;;;;;;12.70;7.85;;;;;;;16.85;77.63;100674.22;10299504;28;20080;-65
2022/10/16 22:12:19;;;;;;;12.20;7.22;;;;;;;16.82;77.27;100675.47;10301766;28;20134;-65
2022/10/16 22:17:21;;;;;;;13.13;7.32;;;;;;;16.64;77.93;100680.66;10304767;28;20085;-65
2022/10/16 22:22:22;;;;;;;14.18;7.68;;;;;;;16.68;77.58;100673.75;10292715;28;20090;-66
2022/10/16 22:27:24;;;;;;;10.25;7.63;;;;;;;16.66;77.58;100681.28;10306440;28;20058;-66
2022/10/16 22:32:26;;;;;;;17.00;7.53;;;;;;;16.58;77.58;100689.63;10305107;28;20058;-66
2022/10/16 22:37:27;;;;;;;10.60;7.63;;;;;;;16.46;77.86;100687.50;10287323;28;20499;-66
2022/10/16 22:42:29;;;;;;;10.50;6.57;;;;;;;16.42;77.91;100693.56;10300908;28;20047;-66
2022/10/16 22:47:30;;;;;;;10.88;6.72;;;;;;;16.43;77.59;100696.09;10301656;28;20143;-65
2022/10/16 22:52:32;;;;;;;11.25;7.05;;;;;;;16.43;77.56;100698.78;10301544;28;20145;-65
2022/10/16 22:57:33;;;;;;;9.57;6.22;;;;;;;16.39;77.26;100700.25;10302872;28;20043;-66
2022/10/16 23:02:34;;;;;;;11.57;6.28;;;;;;;16.31;77.45;100715.88;10303082;28;20152;-66
2022/10/16 23:07:36;;;;;;;10.60;6.32;;;;;;;16.29;77.63;100720.66;10299353;28;20078;-65
2022/10/16 23:12:38;;;;;;;15.02;6.38;;;;;;;16.28;77.64;100719.00;10300127;28;20051;-66
2022/10/16 23:17:39;;;;;;;13.15;5.53;;;;;;;16.25;77.53;100721.09;10280462;28;20134;-65